createdAt,value
2018-11-13T00:01:33.519Z,100816.80
2018-11-13T00:06:31.555Z,100814.69
2018-11-13T00:11:28.980Z,100838.28
2018-11-13T00:16:28.370Z,100836.27
2018-11-13T00:21:25.739Z,100829.97
2018-11-13T00:26:23.157Z,100817.65
2018-11-13T00:31:20.526Z,100816.52
2018-11-13T00:36:17.926Z,100827.80
2018-11-13T00:41:15.325Z,100854.29
2018-11-13T00:46:18.993Z,100854.32
2018-11-13T00:51:16.427Z,100864.35
2018-11-13T00:56:13.967Z,100851.52
2018-11-13T01:01:11.407Z,100865.68
2018-11-13T01:06:08.775Z,100876.84
2018-11-13T01:11:06.142Z,100871.70
2018-11-13T01:16:08.528Z,100869.14
2018-11-13T01:21:06.054Z,100868.45
2018-11-13T01:26:03.527Z,100857.24
2018-11-13T01:31:00.891Z,100837.30
2018-11-13T01:35:58.242Z,100834.20
2018-11-13T01:40:55.630Z,100840.25
2018-11-13T01:46:05.024Z,100829.33
2018-11-13T01:51:02.443Z,100822.67
2018-11-13T01:55:59.794Z,100813.23
2018-11-13T02:00:57.160Z,100806.00
2018-11-13T02:05:54.522Z,100816.89
2018-11-13T02:10:51.878Z,100823.47
2018-11-13T02:15:56.032Z,100829.34
2018-11-13T02:20:53.546Z,100838.60
2018-11-13T02:25:50.892Z,100847.00
2018-11-13T02:30:48.245Z,100843.87
2018-11-13T02:35:45.622Z,100842.83
2018-11-13T02:40:43.075Z,100826.63
2018-11-13T02:45:42.350Z,100830.07
2018-11-13T02:50:39.806Z,100844.41
2018-11-13T02:55:37.165Z,100848.68
2018-11-13T03:00:34.539Z,100849.38
2018-11-13T03:05:31.931Z,100856.37
2018-11-13T03:10:29.300Z,100874.27
2018-11-13T03:15:26.674Z,100875.87
2018-11-13T03:20:24.076Z,100859.08
2018-11-13T03:25:22.098Z,100852.24
2018-11-13T03:30:24.547Z,100834.39
2018-11-13T03:35:21.925Z,100840.59
2018-11-13T03:40:19.382Z,100839.09
2018-11-13T03:45:17.251Z,100836.77
2018-11-13T03:50:15.839Z,100839.98
2018-11-13T03:55:13.839Z,100844.72
2018-11-13T04:00:13.150Z,100849.30
2018-11-13T04:05:15.675Z,100877.23
2018-11-13T04:10:14.129Z,100874.00
2018-11-13T04:15:12.995Z,100887.42
2018-11-13T04:20:12.260Z,100902.20
2018-11-13T04:25:09.730Z,100916.04
2018-11-13T04:30:09.560Z,100910.25
2018-11-13T04:35:08.130Z,100897.66
2018-11-13T04:40:08.938Z,100896.45
2018-11-13T04:45:07.999Z,100875.59
2018-11-13T04:50:06.812Z,100877.34
2018-11-13T04:55:04.606Z,100897.77
2018-11-13T05:00:02.096Z,100908.72
2018-11-13T05:04:59.454Z,100904.89
2018-11-13T05:09:56.831Z,100884.91
2018-11-13T05:14:54.258Z,100887.86
2018-11-13T05:19:52.164Z,100881.95
2018-11-13T05:24:49.560Z,100886.87
2018-11-13T05:29:46.916Z,100897.79
2018-11-13T05:34:44.401Z,100919.06
2018-11-13T05:39:41.795Z,100928.96
2018-11-13T05:44:39.155Z,100927.21
2018-11-13T05:49:36.517Z,100936.41
2018-11-13T05:54:33.899Z,100934.25
2018-11-13T05:59:31.335Z,100943.58
2018-11-13T06:04:28.746Z,100945.31
2018-11-13T06:09:26.136Z,100962.73
2018-11-13T06:14:23.534Z,100958.36
2018-11-13T06:19:20.955Z,100967.41
2018-11-13T06:24:18.831Z,100971.22
2018-11-13T06:29:16.216Z,100977.80
2018-11-13T06:34:13.626Z,100981.12
2018-11-13T06:39:12.863Z,100985.72
2018-11-13T06:44:10.303Z,100990.80
2018-11-13T06:49:07.768Z,100997.66
2018-11-13T06:54:16.447Z,100993.90
2018-11-13T06:59:13.841Z,100986.87
2018-11-13T07:04:11.253Z,101005.39
2018-11-13T07:09:09.220Z,101002.17
2018-11-13T07:14:06.626Z,101000.66
2018-11-13T07:19:04.563Z,101006.33
2018-11-13T07:24:01.991Z,101007.75
2018-11-13T07:29:00.019Z,101025.92
2018-11-13T07:33:57.426Z,101028.88
2018-11-13T07:38:54.823Z,101035.49
2018-11-13T07:43:52.296Z,101037.75
2018-11-13T07:48:49.776Z,101040.11
2018-11-13T07:53:47.256Z,101042.55
2018-11-13T07:58:44.714Z,101044.75
2018-11-13T08:03:42.182Z,101054.34
2018-11-13T08:08:39.561Z,101059.36
2018-11-13T08:13:37.133Z,101061.56
2018-11-13T08:18:34.436Z,101065.58
2018-11-13T08:23:31.923Z,101067.92
2018-11-13T08:28:29.364Z,101075.89
2018-11-13T08:33:26.803Z,101075.28
2018-11-13T08:38:24.247Z,101080.10
2018-11-13T08:43:21.685Z,101076.53
2018-11-13T08:48:19.169Z,101067.77
2018-11-13T08:53:16.591Z,101066.92
2018-11-13T08:58:13.979Z,101060.45
2018-11-13T09:03:11.509Z,101076.84
2018-11-13T09:08:09.784Z,101069.94
2018-11-13T09:13:07.193Z,101085.07
2018-11-13T09:18:05.002Z,101089.77
2018-11-13T09:23:02.458Z,101099.06
2018-11-13T09:27:59.842Z,101104.78
2018-11-13T09:32:57.299Z,101111.86
2018-11-13T09:37:54.708Z,101110.21
2018-11-13T09:42:52.178Z,101118.19
2018-11-13T09:47:49.645Z,101123.16
2018-11-13T09:52:48.068Z,101133.33
2018-11-13T09:57:45.482Z,101133.13
2018-11-13T10:02:46.871Z,101153.84
2018-11-13T10:07:44.137Z,101165.29
2018-11-13T10:12:41.560Z,101157.86
2018-11-13T10:17:39.173Z,101163.01
2018-11-13T10:22:36.540Z,101170.79
2018-11-13T10:27:34.003Z,101165.84
2018-11-13T10:32:31.444Z,101165.58
2018-11-13T10:37:28.867Z,101158.50
2018-11-13T10:42:26.317Z,101149.00
2018-11-13T10:47:23.737Z,101151.98
2018-11-13T10:52:21.166Z,101136.87
2018-11-13T10:57:18.586Z,101149.55
2018-11-13T11:02:21.682Z,101149.48
2018-11-13T11:07:19.175Z,101147.35
2018-11-13T11:12:16.586Z,101146.81
2018-11-13T11:17:13.999Z,101148.59
2018-11-13T11:22:11.396Z,101144.57
2018-11-13T11:27:08.807Z,101148.85
2018-11-13T11:32:06.282Z,101150.49
2018-11-13T11:37:03.895Z,101144.33
2018-11-13T11:42:01.336Z,101126.41
2018-11-13T11:46:58.741Z,101126.42
2018-11-13T11:51:56.182Z,101122.80
2018-11-13T11:56:53.590Z,101135.03
2018-11-13T12:01:51.020Z,101127.65
2018-11-13T12:06:48.434Z,101130.30
2018-11-13T12:11:45.829Z,101132.91
2018-11-13T12:16:43.239Z,101152.45
2018-11-13T12:21:40.631Z,101162.16
2018-11-13T12:26:38.022Z,101180.64
2018-11-13T12:31:35.429Z,101189.06
2018-11-13T12:36:32.936Z,101210.02
2018-11-13T12:41:30.343Z,101211.42
2018-11-13T12:46:27.768Z,101210.52
2018-11-13T12:51:30.800Z,101214.75
2018-11-13T12:56:28.406Z,101226.53
2018-11-13T13:01:25.722Z,101224.09
2018-11-13T13:06:23.175Z,101225.88
2018-11-13T13:11:20.590Z,101215.56
2018-11-13T13:16:17.978Z,101231.00
2018-11-13T13:21:15.399Z,101241.14
2018-11-13T13:26:12.804Z,101248.97
2018-11-13T13:31:10.328Z,101263.70
2018-11-13T13:36:07.734Z,101263.25
2018-11-13T13:41:05.606Z,101270.05
2018-11-13T13:46:03.039Z,101271.32
2018-11-13T13:51:00.423Z,101280.63
2018-11-13T13:55:57.910Z,101290.77
2018-11-13T14:00:56.197Z,101281.66
2018-11-13T14:05:57.282Z,101291.10
2018-11-13T14:10:54.763Z,101289.52
2018-11-13T14:15:52.170Z,101292.36
2018-11-13T14:20:49.677Z,101295.77
2018-11-13T14:25:47.106Z,101301.33
2018-11-13T14:30:44.587Z,101312.14
2018-11-13T14:35:47.190Z,101321.00
2018-11-13T14:40:45.884Z,101318.95
2018-11-13T14:45:43.657Z,101329.38
2018-11-13T14:50:41.490Z,101345.44
2018-11-13T14:55:40.678Z,101354.94
2018-11-13T15:00:38.578Z,101357.09
2018-11-13T15:05:40.639Z,101365.55
2018-11-13T15:10:51.461Z,101376.16
2018-11-13T15:15:48.889Z,101390.41
2018-11-13T15:20:46.995Z,101390.92
2018-11-13T15:25:44.418Z,101398.51
2018-11-13T15:30:43.322Z,101401.12
2018-11-13T15:35:40.742Z,101413.03
2018-11-13T15:40:38.189Z,101415.95
2018-11-13T15:45:35.612Z,101427.06
2018-11-13T15:50:33.967Z,101432.39
2018-11-13T15:55:31.384Z,101453.39
2018-11-13T16:00:33.241Z,101454.22
2018-11-13T16:05:32.175Z,101466.88
2018-11-13T16:10:29.583Z,101466.34
2018-11-13T16:15:27.553Z,101475.64
2018-11-13T16:20:25.350Z,101490.76
2018-11-13T16:25:22.799Z,101492.66
2018-11-13T16:30:21.558Z,101503.73
2018-11-13T16:35:21.036Z,101506.25
2018-11-13T16:40:26.139Z,101513.71
2018-11-13T16:45:24.294Z,101512.84
2018-11-13T16:50:22.835Z,101515.80
2018-11-13T16:55:25.894Z,101528.31
2018-11-13T17:00:23.689Z,101523.93
2018-11-13T17:05:38.899Z,101531.39
2018-11-13T17:10:39.273Z,101532.03
2018-11-13T17:15:36.731Z,101532.52
2018-11-13T17:20:34.139Z,101540.61
2018-11-13T17:25:33.007Z,101546.55
2018-11-13T17:30:31.751Z,101545.92
2018-11-13T17:35:38.587Z,101552.54
2018-11-13T17:40:36.798Z,101566.17
2018-11-13T17:45:36.536Z,101566.70
2018-11-13T17:50:35.206Z,101573.98
2018-11-13T17:55:32.600Z,101577.92
2018-11-13T18:00:31.674Z,101578.66
2018-11-13T18:05:36.397Z,101583.56
2018-11-13T18:10:34.927Z,101591.44
2018-11-13T18:15:32.350Z,101588.83
2018-11-13T18:20:31.900Z,101592.49
2018-11-13T18:25:29.596Z,101596.63
2018-11-13T18:30:31.075Z,101589.86
2018-11-13T18:35:30.520Z,101591.83
2018-11-13T18:40:28.342Z,101593.30
2018-11-13T18:45:28.185Z,101597.60
2018-11-13T18:50:28.668Z,101604.97
2018-11-13T18:55:26.154Z,101606.81
2018-11-13T19:00:32.532Z,101609.44
2018-11-13T19:05:29.919Z,101620.61
2018-11-13T19:10:34.329Z,101623.55
2018-11-13T19:15:33.638Z,101629.97
2018-11-13T19:20:31.191Z,101635.55
2018-11-13T19:25:29.955Z,101641.47
2018-11-13T19:30:27.373Z,101647.91
2018-11-13T19:35:24.957Z,101648.38
2018-11-13T19:40:24.559Z,101666.15
2018-11-13T19:45:22.118Z,101666.45
2018-11-13T19:50:28.345Z,101668.78
2018-11-13T19:55:26.362Z,101685.03
2018-11-13T20:00:27.952Z,101684.05
2018-11-13T20:05:27.263Z,101690.45
2018-11-13T20:10:25.899Z,101697.03
2018-11-13T20:15:27.368Z,101707.87
2018-11-13T20:20:30.202Z,101710.34
2018-11-13T20:25:33.232Z,101720.05
2018-11-13T20:30:34.301Z,101718.56
2018-11-13T20:35:31.699Z,101719.88
2018-11-13T20:40:31.502Z,101726.62
2018-11-13T20:45:29.264Z,101730.52
2018-11-13T20:50:27.973Z,101727.89
2018-11-13T20:55:25.557Z,101727.20
2018-11-13T21:00:28.557Z,101727.21
2018-11-13T21:05:27.011Z,101729.00
2018-11-13T21:10:30.131Z,101733.06
2018-11-13T21:15:30.450Z,101734.27
2018-11-13T21:20:27.842Z,101730.48
2018-11-13T21:25:26.003Z,101739.66
2018-11-13T21:30:23.589Z,101736.38
2018-11-13T21:35:22.296Z,101745.22
2018-11-13T21:40:23.416Z,101754.06
2018-11-13T21:45:21.935Z,101754.00
2018-11-13T21:50:20.972Z,101755.84
2018-11-13T21:55:20.556Z,101763.77
2018-11-13T22:00:30.451Z,101769.66
2018-11-13T22:05:29.841Z,101763.53
2018-11-13T22:10:27.243Z,101772.98
2018-11-13T22:15:25.807Z,101776.05
2018-11-13T22:20:23.707Z,101783.80
2018-11-13T22:25:22.635Z,101794.88
2018-11-13T22:30:21.299Z,101797.20
2018-11-13T22:35:21.033Z,101790.34
2018-11-13T22:40:21.663Z,101793.88
2018-11-13T22:45:20.466Z,101794.73
2018-11-13T22:50:20.799Z,101792.56
2018-11-13T22:55:20.198Z,101804.16
2018-11-13T23:00:23.019Z,101817.59
2018-11-13T23:05:21.765Z,101808.88
2018-11-13T23:10:19.224Z,101810.88
2018-11-13T23:15:18.281Z,101809.59
2018-11-13T23:20:16.996Z,101809.85
2018-11-13T23:25:15.590Z,101820.70
2018-11-13T23:30:15.379Z,101814.34
2018-11-13T23:35:14.366Z,101821.95
2018-11-13T23:40:13.272Z,101823.70
2018-11-13T23:45:11.353Z,101833.64
2018-11-13T23:50:09.077Z,101833.55
2018-11-13T23:55:07.981Z,101838.72
